createdAt,value
2022-12-15T00:00:03.012Z,-5.19
2022-12-15T00:01:03.016Z,-5.18
2022-12-15T00:02:02.955Z,-5.22
2022-12-15T00:03:02.912Z,-5.06
2022-12-15T00:04:02.814Z,-5.14
2022-12-15T00:05:02.679Z,-5.13
2022-12-15T00:06:02.599Z,-5.02
2022-12-15T00:07:02.581Z,-4.98
2022-12-15T00:08:02.465Z,-4.99
2022-12-15T00:09:02.416Z,-4.96
2022-12-15T00:10:02.351Z,-5.02
2022-12-15T00:11:02.296Z,-4.99
2022-12-15T00:12:02.211Z,-5.00
2022-12-15T00:13:02.156Z,-4.98
2022-12-15T00:14:02.084Z,-4.99
2022-12-15T00:15:02.024Z,-5.03
2022-12-15T00:16:02.030Z,-5.05
2022-12-15T00:17:01.904Z,-5.05
2022-12-15T00:18:01.844Z,-5.06
2022-12-15T00:19:01.776Z,-5.06
2022-12-15T00:20:01.720Z,-5.14
2022-12-15T00:21:01.662Z,-5.09
2022-12-15T00:22:01.585Z,-5.03
2022-12-15T00:23:01.524Z,-5.08
2022-12-15T00:24:01.470Z,-5.09
2022-12-15T00:25:01.409Z,-5.08
2022-12-15T00:26:01.367Z,-5.13
2022-12-15T00:27:01.281Z,-5.05
2022-12-15T00:28:01.223Z,-5.09
2022-12-15T00:29:01.160Z,-5.08
2022-12-15T00:30:01.104Z,-5.10
2022-12-15T00:31:02.754Z,-5.17
2022-12-15T00:32:01.040Z,-5.13
2022-12-15T00:33:00.924Z,-5.13
2022-12-15T00:34:00.838Z,-5.08
2022-12-15T00:35:00.783Z,-5.18
2022-12-15T00:36:00.724Z,-5.21
2022-12-15T00:37:00.656Z,-5.21
2022-12-15T00:38:00.611Z,-5.18
2022-12-15T00:39:03.727Z,-5.14
2022-12-15T00:40:00.464Z,-5.08
2022-12-15T00:41:00.395Z,-5.14
2022-12-15T00:42:00.342Z,-5.17
2022-12-15T00:43:00.285Z,-5.05
2022-12-15T00:44:00.224Z,-5.08
2022-12-15T00:45:00.144Z,-5.17
2022-12-15T00:46:00.213Z,-5.14
2022-12-15T00:47:00.080Z,-5.17
2022-12-15T00:47:59.953Z,-5.19
2022-12-15T00:48:59.929Z,-5.09
2022-12-15T00:49:59.838Z,-5.09
2022-12-15T00:50:59.767Z,-5.06
2022-12-15T00:51:59.720Z,-5.05
2022-12-15T00:52:59.653Z,-4.99
2022-12-15T00:53:59.586Z,-5.09
2022-12-15T00:54:59.520Z,-5.08
2022-12-15T00:55:59.466Z,-5.09
2022-12-15T00:56:59.402Z,-5.06
2022-12-15T00:57:59.353Z,-5.06
2022-12-15T00:58:59.279Z,-5.09
2022-12-15T00:59:59.212Z,-5.05
2022-12-15T01:00:59.151Z,-5.02
2022-12-15T01:01:59.269Z,-4.91
2022-12-15T01:02:59.305Z,-4.92
2022-12-15T01:03:59.013Z,-4.88
2022-12-15T01:04:58.902Z,-4.92
2022-12-15T01:05:58.834Z,-4.79
2022-12-15T01:06:58.781Z,-4.81
2022-12-15T01:07:58.724Z,-4.78
2022-12-15T01:08:58.673Z,-4.70
2022-12-15T01:09:58.583Z,-4.69
2022-12-15T01:10:58.523Z,-4.77
2022-12-15T01:11:58.461Z,-4.79
2022-12-15T01:12:58.399Z,-4.69
2022-12-15T01:13:58.334Z,-4.70
2022-12-15T01:14:58.291Z,-4.66
2022-12-15T01:15:58.313Z,-4.77
2022-12-15T01:16:58.140Z,-4.69
2022-12-15T01:17:58.087Z,-4.60
2022-12-15T01:18:58.022Z,-4.60
2022-12-15T01:19:57.980Z,-4.60
2022-12-15T01:20:57.886Z,-4.71
2022-12-15T01:21:57.834Z,-4.64
2022-12-15T01:22:57.772Z,-4.63
2022-12-15T01:23:57.707Z,-4.61
2022-12-15T01:24:57.660Z,-4.66
2022-12-15T01:25:57.575Z,-4.70
2022-12-15T01:26:57.514Z,-4.60
2022-12-15T01:27:57.449Z,-4.60
2022-12-15T01:28:57.401Z,-4.61
2022-12-15T01:29:57.323Z,-4.63
2022-12-15T01:30:57.342Z,-4.61
2022-12-15T01:31:57.344Z,-4.69
2022-12-15T01:32:57.160Z,-4.64
2022-12-15T01:33:57.083Z,-4.63
2022-12-15T01:34:57.024Z,-4.55
2022-12-15T01:35:56.982Z,-4.55
2022-12-15T01:36:56.897Z,-4.55
2022-12-15T01:37:56.823Z,-4.50
2022-12-15T01:38:56.775Z,-4.45
2022-12-15T01:39:56.727Z,-4.48
2022-12-15T01:40:56.662Z,-4.41
2022-12-15T01:41:56.576Z,-4.48
2022-12-15T01:42:56.537Z,-4.42
2022-12-15T01:43:56.456Z,-4.41
2022-12-15T01:44:56.385Z,-4.42
2022-12-15T01:45:56.349Z,-4.38
2022-12-15T01:46:56.411Z,-4.39
2022-12-15T01:47:56.231Z,-4.31
2022-12-15T01:48:56.156Z,-4.42
2022-12-15T01:49:56.083Z,-4.32
2022-12-15T01:50:56.037Z,-4.31
2022-12-15T01:51:55.956Z,-4.27
2022-12-15T01:52:55.894Z,-4.34
2022-12-15T01:53:55.833Z,-4.34
2022-12-15T01:54:55.767Z,-4.24
2022-12-15T01:55:55.723Z,-4.21
2022-12-15T01:56:55.634Z,-4.27
2022-12-15T01:57:55.578Z,-4.30
2022-12-15T01:58:55.521Z,-4.30
2022-12-15T01:59:55.474Z,-4.31
2022-12-15T02:00:55.413Z,-4.30
2022-12-15T02:01:55.456Z,-4.34
2022-12-15T02:02:55.550Z,-4.39
2022-12-15T02:03:55.214Z,-4.31
2022-12-15T02:04:55.136Z,-4.39
2022-12-15T02:05:55.083Z,-4.41
2022-12-15T02:06:55.038Z,-4.38
2022-12-15T02:07:54.955Z,-4.38
2022-12-15T02:08:54.896Z,-4.45
2022-12-15T02:09:54.831Z,-4.42
2022-12-15T02:10:54.769Z,-4.48
2022-12-15T02:11:54.722Z,-4.46
2022-12-15T02:12:54.646Z,-4.43
2022-12-15T02:13:54.582Z,-4.43
2022-12-15T02:14:54.523Z,-4.52
2022-12-15T02:15:54.503Z,-4.49
2022-12-15T02:16:54.411Z,-4.42
2022-12-15T02:17:54.336Z,-4.48
2022-12-15T02:18:54.270Z,-4.50
2022-12-15T02:19:54.211Z,-4.50
2022-12-15T02:20:54.144Z,-4.46
2022-12-15T02:21:54.097Z,-4.39
2022-12-15T02:22:54.024Z,-4.49
2022-12-15T02:23:53.962Z,-4.49
2022-12-15T02:24:53.924Z,-4.43
2022-12-15T02:25:53.846Z,-4.43
2022-12-15T02:26:53.784Z,-4.53
2022-12-15T02:27:53.725Z,-4.45
2022-12-15T02:28:53.645Z,-4.41
2022-12-15T02:29:53.586Z,-4.49
2022-12-15T02:30:53.524Z,-4.53
2022-12-15T02:31:53.474Z,-4.52
2022-12-15T02:32:53.419Z,-4.53
2022-12-15T02:33:53.348Z,-4.42
2022-12-15T02:34:53.267Z,-4.55
2022-12-15T02:35:53.205Z,-4.49
2022-12-15T02:36:53.153Z,-4.45
2022-12-15T02:37:53.082Z,-4.45
2022-12-15T02:38:53.019Z,-4.50
2022-12-15T02:39:52.959Z,-4.50
2022-12-15T02:40:52.914Z,-4.50
2022-12-15T02:41:52.850Z,-4.48
2022-12-15T02:42:52.766Z,-4.49
2022-12-15T02:43:52.707Z,-4.55
2022-12-15T02:44:52.648Z,-4.48
2022-12-15T02:45:52.616Z,-4.48
2022-12-15T02:46:52.536Z,-4.55
2022-12-15T02:47:52.457Z,-4.50
2022-12-15T02:48:52.406Z,-4.59
2022-12-15T02:49:52.344Z,-4.53
2022-12-15T02:50:52.279Z,-4.53
2022-12-15T02:51:52.198Z,-4.59
2022-12-15T02:52:52.145Z,-4.55
2022-12-15T02:53:52.071Z,-4.63
2022-12-15T02:54:52.025Z,-4.57
2022-12-15T02:55:51.954Z,-4.66
2022-12-15T02:56:51.888Z,-4.67
2022-12-15T02:57:51.850Z,-4.67
2022-12-15T02:58:51.758Z,-4.82
2022-12-15T02:59:51.695Z,-4.73
2022-12-15T03:00:51.741Z,-4.73
2022-12-15T03:01:51.676Z,-4.79
2022-12-15T03:02:51.680Z,-4.78
2022-12-15T03:03:51.456Z,-4.73
2022-12-15T03:04:51.419Z,-4.81
2022-12-15T03:05:51.331Z,-4.81
2022-12-15T03:06:54.761Z,-4.79
2022-12-15T03:07:51.214Z,-4.89
2022-12-15T03:08:51.164Z,-4.82
2022-12-15T03:09:51.082Z,-4.91
2022-12-15T03:10:51.017Z,-4.88
2022-12-15T03:11:50.970Z,-5.02
2022-12-15T03:12:50.895Z,-4.95
2022-12-15T03:13:50.837Z,-4.96
2022-12-15T03:14:50.780Z,-5.06
2022-12-15T03:15:50.712Z,-4.91
2022-12-15T03:16:50.697Z,-4.91
2022-12-15T03:17:50.594Z,-4.92
2022-12-15T03:18:50.520Z,-5.00
2022-12-15T03:19:50.457Z,-4.92
2022-12-15T03:20:50.396Z,-4.99
2022-12-15T03:21:50.324Z,-5.00
2022-12-15T03:22:50.275Z,-5.05
2022-12-15T03:23:50.196Z,-5.02
2022-12-15T03:24:50.165Z,-5.02
2022-12-15T03:25:50.089Z,-5.08
2022-12-15T03:26:50.114Z,-5.06
2022-12-15T03:27:49.969Z,-4.98
2022-12-15T03:28:49.895Z,-5.00
2022-12-15T03:29:49.832Z,-4.98
2022-12-15T03:30:50.483Z,-5.06
2022-12-15T03:31:50.324Z,-5.03
2022-12-15T03:32:49.643Z,-4.99
2022-12-15T03:33:49.596Z,-5.03
2022-12-15T03:34:49.509Z,-5.08
2022-12-15T03:35:49.451Z,-5.14
2022-12-15T03:36:49.384Z,-5.22
2022-12-15T03:37:49.651Z,-5.24
2022-12-15T03:38:49.272Z,-5.13
2022-12-15T03:39:49.195Z,-5.13
2022-12-15T03:40:49.143Z,-5.10
2022-12-15T03:41:49.065Z,-5.13
2022-12-15T03:42:49.003Z,-5.24
2022-12-15T03:43:49.841Z,-5.27
2022-12-15T03:44:48.893Z,-5.25
2022-12-15T03:45:48.981Z,-5.19
2022-12-15T03:46:48.766Z,-5.25
2022-12-15T03:47:48.699Z,-5.36
2022-12-15T03:48:48.651Z,-5.35
2022-12-15T03:49:48.568Z,-5.47
2022-12-15T03:50:48.507Z,-5.36
2022-12-15T03:51:48.454Z,-5.38
2022-12-15T03:52:48.378Z,-5.42
2022-12-15T03:53:48.331Z,-5.39
2022-12-15T03:54:48.268Z,-5.45
2022-12-15T03:55:48.201Z,-5.43
2022-12-15T03:56:48.126Z,-5.46
2022-12-15T03:57:48.078Z,-5.57
2022-12-15T03:58:48.022Z,-5.57
2022-12-15T03:59:47.940Z,-5.67
2022-12-15T04:00:47.879Z,-5.63
2022-12-15T04:01:47.920Z,-5.60
2022-12-15T04:02:50.122Z,-5.60
2022-12-15T04:03:47.746Z,-5.67
2022-12-15T04:04:47.627Z,-5.58
2022-12-15T04:05:47.560Z,-5.42
2022-12-15T04:06:47.520Z,-5.39
2022-12-15T04:07:47.497Z,-5.46
2022-12-15T04:08:47.395Z,-5.25
2022-12-15T04:09:47.316Z,-5.33
2022-12-15T04:10:47.248Z,-5.27
2022-12-15T04:11:47.183Z,-5.24
2022-12-15T04:12:47.136Z,-5.28
2022-12-15T04:13:47.089Z,-5.27
2022-12-15T04:14:46.999Z,-5.27
2022-12-15T04:15:46.942Z,-5.27
2022-12-15T04:16:46.904Z,-5.24
2022-12-15T04:17:46.825Z,-5.27
2022-12-15T04:18:46.762Z,-5.28
2022-12-15T04:19:46.694Z,-5.36
2022-12-15T04:20:46.620Z,-5.21
2022-12-15T04:21:46.567Z,-5.28
2022-12-15T04:22:46.501Z,-5.36
2022-12-15T04:23:46.460Z,-5.35
2022-12-15T04:24:46.378Z,-5.42
2022-12-15T04:25:46.307Z,-5.39
2022-12-15T04:26:46.254Z,-5.35
2022-12-15T04:27:46.190Z,-5.35
2022-12-15T04:28:46.142Z,-5.43
2022-12-15T04:29:46.052Z,-5.38
2022-12-15T04:30:46.034Z,-5.33
2022-12-15T04:31:45.929Z,-5.43
2022-12-15T04:32:45.873Z,-5.40
2022-12-15T04:33:45.909Z,-5.38
2022-12-15T04:34:45.751Z,-5.31
2022-12-15T04:35:45.680Z,-5.36
2022-12-15T04:36:45.626Z,-5.35
2022-12-15T04:37:45.570Z,-5.31
2022-12-15T04:38:50.378Z,-5.46
2022-12-15T04:39:45.440Z,-5.46
2022-12-15T04:40:45.375Z,-5.40
2022-12-15T04:41:45.302Z,-5.49
2022-12-15T04:42:45.246Z,-5.43
2022-12-15T04:43:45.173Z,-5.39
2022-12-15T04:44:45.135Z,-5.45
2022-12-15T04:45:45.130Z,-5.49
2022-12-15T04:46:44.984Z,-5.45
2022-12-15T04:47:44.921Z,-5.49
2022-12-15T04:48:44.872Z,-5.38
2022-12-15T04:49:44.814Z,-5.39
2022-12-15T04:50:44.747Z,-5.36
2022-12-15T04:51:44.667Z,-5.42
2022-12-15T04:52:44.617Z,-5.42
2022-12-15T04:53:44.544Z,-5.25
2022-12-15T04:54:44.493Z,-5.36
2022-12-15T04:55:44.438Z,-5.43
2022-12-15T04:56:44.367Z,-5.35
2022-12-15T04:57:44.299Z,-5.46
2022-12-15T04:58:44.239Z,-5.46
2022-12-15T04:59:44.167Z,-5.38
2022-12-15T05:00:44.129Z,-5.42
2022-12-15T05:01:44.205Z,-5.39
2022-12-15T05:02:44.006Z,-5.45
2022-12-15T05:03:43.915Z,-5.45
2022-12-15T05:04:43.942Z,-5.47
2022-12-15T05:05:43.814Z,-5.60
2022-12-15T05:06:43.732Z,-5.54
2022-12-15T05:07:43.676Z,-5.57
2022-12-15T05:08:43.619Z,-5.60
2022-12-15T05:09:43.556Z,-5.63
2022-12-15T05:10:43.486Z,-5.63
2022-12-15T05:11:43.423Z,-5.64
2022-12-15T05:12:43.349Z,-5.71
2022-12-15T05:13:43.309Z,-5.71
2022-12-15T05:14:43.221Z,-5.61
2022-12-15T05:15:43.205Z,-5.64
2022-12-15T05:16:43.159Z,-5.72
2022-12-15T05:17:43.100Z,-5.68
2022-12-15T05:18:43.005Z,-5.76
2022-12-15T05:19:42.919Z,-5.72
2022-12-15T05:20:42.857Z,-5.76
2022-12-15T05:21:42.794Z,-5.86
2022-12-15T05:22:42.727Z,-5.81
2022-12-15T05:23:42.674Z,-5.82
2022-12-15T05:24:42.635Z,-5.97
2022-12-15T05:25:42.533Z,-6.02
2022-12-15T05:26:43.310Z,-5.97
2022-12-15T05:27:42.404Z,-5.99
2022-12-15T05:28:42.343Z,-6.13
2022-12-15T05:29:42.293Z,-6.07
2022-12-15T05:30:42.267Z,-6.20
2022-12-15T05:31:42.180Z,-6.17
2022-12-15T05:32:42.116Z,-6.15
2022-12-15T05:33:42.041Z,-6.07
2022-12-15T05:34:41.979Z,-6.20
2022-12-15T05:35:41.928Z,-6.11
2022-12-15T05:36:41.850Z,-6.13
2022-12-15T05:37:41.778Z,-6.10
2022-12-15T05:38:41.722Z,-6.08
2022-12-15T05:39:41.647Z,-6.10
2022-12-15T05:40:41.605Z,-6.20
2022-12-15T05:41:41.544Z,-6.18
2022-12-15T05:42:41.470Z,-6.21
2022-12-15T05:43:41.410Z,-6.20
2022-12-15T05:44:41.347Z,-6.14
2022-12-15T05:45:41.284Z,-6.15
2022-12-15T05:46:41.266Z,-6.15
2022-12-15T05:47:41.148Z,-6.17
2022-12-15T05:48:41.084Z,-6.23
2022-12-15T05:49:41.030Z,-6.21
2022-12-15T05:50:40.981Z,-6.28
2022-12-15T05:51:40.893Z,-6.24
2022-12-15T05:52:44.977Z,-6.28
2022-12-15T05:53:40.782Z,-6.18
2022-12-15T05:54:40.718Z,-6.28
2022-12-15T05:55:40.668Z,-6.26
2022-12-15T05:56:40.590Z,-6.26
2022-12-15T05:57:40.519Z,-6.23
2022-12-15T05:58:45.132Z,-6.26
2022-12-15T05:59:40.393Z,-6.11
2022-12-15T06:00:40.352Z,-6.18
2022-12-15T06:01:40.396Z,-6.20
2022-12-15T06:02:40.242Z,-6.15
2022-12-15T06:03:40.140Z,-6.15
2022-12-15T06:04:40.132Z,-6.13
2022-12-15T06:05:40.013Z,-6.17
2022-12-15T06:06:39.951Z,-6.15
2022-12-15T06:07:39.886Z,-6.07
2022-12-15T06:08:39.827Z,-6.10
2022-12-15T06:09:39.768Z,-6.07
2022-12-15T06:10:39.714Z,-6.20
2022-12-15T06:11:39.646Z,-6.11
2022-12-15T06:12:39.572Z,-6.18
2022-12-15T06:13:39.523Z,-6.18
2022-12-15T06:14:39.453Z,-6.18
2022-12-15T06:15:39.386Z,-6.14
2022-12-15T06:16:46.449Z,-6.20
2022-12-15T06:17:39.256Z,-6.23
2022-12-15T06:18:39.194Z,-6.17
2022-12-15T06:19:39.149Z,-6.17
2022-12-15T06:20:39.083Z,-6.18
2022-12-15T06:21:39.008Z,-6.15
2022-12-15T06:22:38.957Z,-6.17
2022-12-15T06:23:38.878Z,-6.18
2022-12-15T06:24:38.828Z,-6.17
2022-12-15T06:25:38.749Z,-6.18
2022-12-15T06:26:38.712Z,-5.99
2022-12-15T06:27:38.626Z,-5.99
2022-12-15T06:28:38.586Z,-5.82
2022-12-15T06:29:38.499Z,-5.84
2022-12-15T06:30:38.462Z,-5.75
2022-12-15T06:31:38.423Z,-5.78
2022-12-15T06:32:38.312Z,-5.68
2022-12-15T06:33:38.257Z,-5.75
2022-12-15T06:34:38.207Z,-5.68
2022-12-15T06:35:38.130Z,-5.64
2022-12-15T06:36:38.074Z,-5.67
2022-12-15T06:37:37.996Z,-5.67
2022-12-15T06:38:37.941Z,-5.72
2022-12-15T06:39:37.871Z,-5.71
2022-12-15T06:40:38.422Z,-5.67
2022-12-15T06:41:37.775Z,-5.72
2022-12-15T06:42:37.677Z,-5.75
2022-12-15T06:43:37.614Z,-5.74
2022-12-15T06:44:37.550Z,-5.78
2022-12-15T06:45:37.487Z,-5.84
2022-12-15T06:46:37.514Z,-5.92
2022-12-15T06:47:37.366Z,-6.00
2022-12-15T06:48:37.298Z,-6.03
2022-12-15T06:49:37.248Z,-6.08
2022-12-15T06:50:37.194Z,-6.11
2022-12-15T06:51:37.122Z,-6.03
2022-12-15T06:52:37.047Z,-6.13
2022-12-15T06:53:37.003Z,-6.17
2022-12-15T06:54:36.933Z,-6.18
2022-12-15T06:55:36.860Z,-6.21
2022-12-15T06:56:36.811Z,-6.28
2022-12-15T06:57:36.748Z,-6.29
2022-12-15T06:58:36.668Z,-6.32
2022-12-15T06:59:36.628Z,-6.42
2022-12-15T07:00:36.542Z,-6.36
2022-12-15T07:01:36.641Z,-6.39
2022-12-15T07:02:36.526Z,-6.42
2022-12-15T07:03:37.030Z,-6.42
2022-12-15T07:04:36.306Z,-6.47
2022-12-15T07:05:36.232Z,-6.53
2022-12-15T07:06:36.344Z,-6.50
2022-12-15T07:07:36.101Z,-6.53
2022-12-15T07:08:41.322Z,-6.58
2022-12-15T07:09:36.000Z,-6.66
2022-12-15T07:10:35.935Z,-6.61
2022-12-15T07:11:35.862Z,-6.74
2022-12-15T07:12:35.782Z,-6.81
2022-12-15T07:13:35.733Z,-6.87
2022-12-15T07:14:35.677Z,-6.89
2022-12-15T07:15:35.594Z,-6.81
2022-12-15T07:16:35.600Z,-6.90
2022-12-15T07:17:35.469Z,-6.94
2022-12-15T07:18:35.409Z,-6.90
2022-12-15T07:19:35.353Z,-6.90
2022-12-15T07:20:35.279Z,-6.89
2022-12-15T07:21:35.216Z,-6.92
2022-12-15T07:22:35.152Z,-6.93
2022-12-15T07:23:53.241Z,-6.93
2022-12-15T07:24:35.040Z,-6.97
2022-12-15T07:25:34.965Z,-6.99
2022-12-15T07:26:34.922Z,-6.99
2022-12-15T07:27:34.849Z,-7.03
2022-12-15T07:28:35.004Z,-6.99
2022-12-15T07:29:34.706Z,-6.97
2022-12-15T07:30:38.639Z,-7.04
2022-12-15T07:31:34.621Z,-6.96
2022-12-15T07:32:34.525Z,-7.03
2022-12-15T07:33:34.667Z,-6.97
2022-12-15T07:34:34.391Z,-7.00
2022-12-15T07:35:34.327Z,-6.93
2022-12-15T07:36:34.279Z,-6.89
2022-12-15T07:37:34.205Z,-6.86
2022-12-15T07:38:34.147Z,-6.72
2022-12-15T07:39:34.098Z,-6.69
2022-12-15T07:40:34.012Z,-6.71
2022-12-15T07:41:33.962Z,-6.75
2022-12-15T07:42:33.896Z,-6.68
2022-12-15T07:43:34.505Z,-6.65
2022-12-15T07:44:33.772Z,-6.66
2022-12-15T07:45:33.730Z,-6.58
2022-12-15T07:46:33.682Z,-6.75
2022-12-15T07:47:33.581Z,-6.79
2022-12-15T07:48:33.532Z,-6.65
2022-12-15T07:49:33.462Z,-6.74
2022-12-15T07:50:33.360Z,-6.72
2022-12-15T07:51:33.298Z,-6.71
2022-12-15T07:52:33.240Z,-6.75
2022-12-15T07:53:33.786Z,-6.68
2022-12-15T07:54:33.125Z,-6.71
2022-12-15T07:56:04.961Z,-6.68
2022-12-15T07:56:37.476Z,-6.56
2022-12-15T07:57:32.943Z,-6.53
2022-12-15T07:58:32.874Z,-6.49
2022-12-15T07:59:32.799Z,-6.46
2022-12-15T08:00:32.746Z,-6.49
2022-12-15T08:01:32.762Z,-6.41
2022-12-15T08:02:32.827Z,-6.38
2022-12-15T08:03:33.335Z,-6.42
2022-12-15T08:04:32.483Z,-6.52
2022-12-15T08:05:32.431Z,-6.56
2022-12-15T08:06:32.353Z,-6.49
2022-12-15T08:07:32.295Z,-6.44
2022-12-15T08:08:32.574Z,-6.39
2022-12-15T08:09:32.158Z,-6.15
2022-12-15T08:10:32.096Z,-5.84
2022-12-15T08:11:32.059Z,-5.31
2022-12-15T08:12:31.975Z,-4.43
2022-12-15T08:14:01.225Z,-3.40
2022-12-15T08:14:31.850Z,-2.58
2022-12-15T08:15:31.784Z,-1.66
2022-12-15T08:16:31.929Z,-0.94
2022-12-15T08:17:31.678Z,-0.43
2022-12-15T08:18:31.604Z,0.16
2022-12-15T08:19:31.546Z,0.99
2022-12-15T08:20:31.487Z,1.67
2022-12-15T08:21:31.445Z,2.50
2022-12-15T08:22:31.368Z,3.14
2022-12-15T08:23:31.630Z,3.81
2022-12-15T08:24:31.243Z,4.14
2022-12-15T08:25:31.192Z,4.19
2022-12-15T08:26:31.707Z,4.28
2022-12-15T08:27:31.075Z,4.24
2022-12-15T08:28:31.015Z,4.40
2022-12-15T08:30:30.905Z,5.25
2022-12-15T08:31:30.888Z,5.64
2022-12-15T08:32:30.818Z,6.02
2022-12-15T08:33:31.023Z,6.22
2022-12-15T08:34:30.690Z,6.62
2022-12-15T08:35:55.290Z,6.82
2022-12-15T08:36:30.604Z,7.14
2022-12-15T08:37:30.549Z,7.38
2022-12-15T08:38:30.481Z,7.43
2022-12-15T08:39:30.432Z,7.51
2022-12-15T08:40:30.386Z,7.58
2022-12-15T08:41:30.339Z,7.79
2022-12-15T08:42:30.293Z,7.87
2022-12-15T08:43:30.564Z,8.18
2022-12-15T08:44:30.170Z,8.15
2022-12-15T08:45:30.187Z,7.91
2022-12-15T08:46:30.204Z,7.63
2022-12-15T08:47:30.048Z,7.88
2022-12-15T08:48:30.003Z,8.10
2022-12-15T08:49:29.925Z,8.49
2022-12-15T08:50:29.883Z,8.60
2022-12-15T08:51:29.856Z,8.82
2022-12-15T08:52:29.891Z,9.08
2022-12-15T08:53:31.594Z,9.08
2022-12-15T08:54:29.690Z,9.26
2022-12-15T08:55:29.644Z,9.37
2022-12-15T08:56:29.589Z,9.39
2022-12-15T08:57:29.571Z,9.50
2022-12-15T08:58:29.540Z,9.56
2022-12-15T08:59:29.444Z,9.54
2022-12-15T09:00:29.422Z,9.66
2022-12-15T09:01:29.548Z,9.83
2022-12-15T09:02:29.395Z,9.91
2022-12-15T09:03:29.745Z,9.80
2022-12-15T09:04:29.302Z,9.56
2022-12-15T09:05:29.167Z,9.65
2022-12-15T09:06:29.141Z,10.15
2022-12-15T09:07:29.078Z,10.28
2022-12-15T09:08:29.045Z,10.38
2022-12-15T09:09:28.991Z,10.10
2022-12-15T09:10:28.957Z,10.31
2022-12-15T09:11:28.918Z,10.61
2022-12-15T09:12:28.870Z,10.78
2022-12-15T09:13:29.277Z,10.90
2022-12-15T09:14:29.589Z,11.18
2022-12-15T09:15:59.789Z,11.43
2022-12-15T09:16:28.775Z,11.70
2022-12-15T09:17:28.716Z,11.70
2022-12-15T09:18:28.588Z,11.43
2022-12-15T09:19:28.529Z,11.48
2022-12-15T09:20:28.486Z,11.45
2022-12-15T09:21:28.465Z,11.62
2022-12-15T09:22:28.422Z,11.52
2022-12-15T09:23:28.930Z,11.33
2022-12-15T09:24:34.789Z,11.43
2022-12-15T09:25:28.262Z,11.62
2022-12-15T09:26:28.216Z,11.88
2022-12-15T09:27:28.175Z,12.03
2022-12-15T09:28:28.134Z,12.32
2022-12-15T09:29:28.108Z,11.90
2022-12-15T09:30:28.092Z,11.52
2022-12-15T09:31:28.083Z,11.37
2022-12-15T09:32:27.963Z,11.26
2022-12-15T09:33:28.356Z,11.45
2022-12-15T09:34:27.884Z,11.55
2022-12-15T09:35:27.828Z,11.69
2022-12-15T09:36:27.780Z,12.12
2022-12-15T09:37:27.739Z,12.21
2022-12-15T09:38:27.686Z,12.24
2022-12-15T09:39:27.663Z,12.49
2022-12-15T09:40:27.622Z,12.87
2022-12-15T09:41:27.569Z,12.98
2022-12-15T09:42:27.544Z,13.16
2022-12-15T09:43:37.065Z,13.00
2022-12-15T09:44:27.430Z,13.31
2022-12-15T09:45:27.382Z,13.52
2022-12-15T09:46:27.469Z,13.77
2022-12-15T09:47:27.300Z,13.54
2022-12-15T09:48:27.266Z,13.44
2022-12-15T09:49:27.214Z,13.59
2022-12-15T09:50:27.181Z,13.54
2022-12-15T09:51:27.189Z,13.89
2022-12-15T09:52:27.101Z,13.87
2022-12-15T09:53:53.727Z,13.74
2022-12-15T09:54:27.056Z,13.37
2022-12-15T09:55:26.945Z,13.15
2022-12-15T09:56:26.922Z,12.93
2022-12-15T09:57:26.879Z,13.13
2022-12-15T09:58:26.822Z,13.30
2022-12-15T09:59:26.779Z,13.81
2022-12-15T10:00:26.744Z,14.11
2022-12-15T10:01:26.757Z,14.22
2022-12-15T10:02:26.743Z,14.43
2022-12-15T10:03:26.746Z,14.69
2022-12-15T10:04:26.630Z,14.63
2022-12-15T10:05:38.141Z,14.60
2022-12-15T10:06:32.749Z,14.86
2022-12-15T10:07:26.449Z,14.81
2022-12-15T10:08:26.413Z,14.53
2022-12-15T10:09:26.342Z,14.32
2022-12-15T10:10:26.317Z,14.18
2022-12-15T10:11:26.271Z,13.75
2022-12-15T10:12:26.222Z,12.79
2022-12-15T10:13:26.186Z,12.03
2022-12-15T10:14:26.119Z,11.50
2022-12-15T10:15:26.091Z,11.47
2022-12-15T10:16:26.151Z,11.27
2022-12-15T10:17:26.012Z,11.26
2022-12-15T10:18:25.964Z,11.05
2022-12-15T10:19:25.911Z,11.11
2022-12-15T10:20:25.867Z,11.04
2022-12-15T10:21:25.831Z,11.05
2022-12-15T10:22:25.797Z,10.81
2022-12-15T10:23:25.803Z,10.42
2022-12-15T10:25:07.343Z,9.95
2022-12-15T10:25:30.137Z,9.72
2022-12-15T10:26:25.595Z,9.66
2022-12-15T10:27:25.581Z,10.07
2022-12-15T10:28:25.707Z,10.37
2022-12-15T10:29:25.529Z,10.75
2022-12-15T10:30:25.587Z,11.29
2022-12-15T10:31:25.473Z,11.66
2022-12-15T10:32:25.457Z,11.91
2022-12-15T10:33:25.278Z,12.22
2022-12-15T10:34:25.926Z,12.54
2022-12-15T10:35:25.169Z,12.57
2022-12-15T10:36:25.543Z,12.95
2022-12-15T10:37:25.094Z,13.31
2022-12-15T10:38:25.045Z,13.74
2022-12-15T10:39:25.104Z,14.35
2022-12-15T10:40:24.977Z,14.82
2022-12-15T10:41:24.901Z,15.14
2022-12-15T10:42:24.848Z,15.36
2022-12-15T10:43:24.817Z,15.49
2022-12-15T10:44:30.250Z,15.58
2022-12-15T10:45:24.721Z,15.73
2022-12-15T10:46:24.803Z,15.76
2022-12-15T10:47:24.663Z,15.92
2022-12-15T10:48:24.591Z,16.01
2022-12-15T10:49:24.587Z,15.54
2022-12-15T10:50:25.354Z,15.39
2022-12-15T10:51:24.593Z,15.03
2022-12-15T10:52:24.471Z,14.58
2022-12-15T10:53:24.474Z,14.51
2022-12-15T10:54:24.314Z,14.10
2022-12-15T10:55:24.259Z,13.44
2022-12-15T10:56:30.646Z,13.12
2022-12-15T10:57:24.192Z,13.53
2022-12-15T10:58:24.127Z,13.85
2022-12-15T10:59:24.083Z,13.85
2022-12-15T11:00:24.160Z,13.90
2022-12-15T11:01:24.130Z,14.43
2022-12-15T11:02:25.548Z,14.78
2022-12-15T11:03:24.229Z,15.06
2022-12-15T11:04:24.942Z,15.21
2022-12-15T11:05:23.868Z,15.28
2022-12-15T11:06:23.970Z,15.51
2022-12-15T11:07:23.877Z,15.58
2022-12-15T11:08:23.764Z,15.39
2022-12-15T11:09:23.637Z,15.47
2022-12-15T11:10:24.370Z,15.57
2022-12-15T11:11:25.950Z,15.75
2022-12-15T11:12:23.486Z,15.83
2022-12-15T11:13:23.442Z,15.73
2022-12-15T11:14:23.406Z,15.65
2022-12-15T11:15:23.355Z,15.24
2022-12-15T11:16:23.333Z,15.25
2022-12-15T11:17:23.258Z,15.03
2022-12-15T11:18:23.218Z,14.97
2022-12-15T11:19:23.169Z,14.82
2022-12-15T11:20:23.122Z,14.81
2022-12-15T11:21:23.244Z,14.48
2022-12-15T11:22:23.154Z,14.48
2022-12-15T11:23:22.988Z,14.45
2022-12-15T11:24:22.924Z,14.29
2022-12-15T11:25:22.940Z,14.28
2022-12-15T11:26:22.867Z,14.40
2022-12-15T11:27:22.876Z,14.43
2022-12-15T11:28:22.760Z,14.54
2022-12-15T11:29:22.760Z,14.70
2022-12-15T11:30:22.644Z,14.58
2022-12-15T11:31:22.595Z,14.47
2022-12-15T11:32:22.550Z,14.70
2022-12-15T11:33:22.534Z,14.72
2022-12-15T11:34:22.463Z,14.53
2022-12-15T11:35:22.425Z,14.50
2022-12-15T11:36:22.355Z,14.08
2022-12-15T11:37:22.301Z,13.79
2022-12-15T11:38:22.526Z,13.79
2022-12-15T11:39:22.207Z,13.78
2022-12-15T11:40:22.155Z,13.74
2022-12-15T11:41:22.156Z,13.62
2022-12-15T11:42:22.141Z,13.68
2022-12-15T11:43:22.154Z,13.47
2022-12-15T11:44:22.116Z,13.33
2022-12-15T11:45:21.910Z,13.18
2022-12-15T11:46:21.860Z,13.05
2022-12-15T11:47:21.814Z,12.67
2022-12-15T11:48:21.813Z,12.49
2022-12-15T11:49:21.717Z,12.47
2022-12-15T11:50:21.666Z,12.20
2022-12-15T11:51:21.603Z,12.27
2022-12-15T11:52:21.554Z,12.36
2022-12-15T11:53:21.500Z,12.28
2022-12-15T11:54:21.653Z,12.07
2022-12-15T11:55:25.895Z,12.04
2022-12-15T11:56:21.350Z,11.80
2022-12-15T11:57:21.309Z,11.62
2022-12-15T11:58:21.247Z,11.45
2022-12-15T11:59:21.191Z,11.32
2022-12-15T12:00:21.165Z,11.14
2022-12-15T12:01:21.229Z,10.93
2022-12-15T12:02:21.127Z,10.61
2022-12-15T12:03:21.012Z,10.53
2022-12-15T12:04:20.954Z,10.25
2022-12-15T12:05:20.885Z,10.16
2022-12-15T12:06:20.839Z,10.12
2022-12-15T12:07:20.789Z,9.72
2022-12-15T12:08:20.736Z,9.44
2022-12-15T12:09:21.001Z,9.14
2022-12-15T12:10:20.635Z,8.94
2022-12-15T12:11:20.663Z,8.66
2022-12-15T12:12:20.551Z,8.46
2022-12-15T12:13:20.501Z,8.06
2022-12-15T12:14:20.544Z,7.87
2022-12-15T12:15:20.382Z,7.60
2022-12-15T12:16:20.357Z,7.48
2022-12-15T12:17:20.279Z,7.32
2022-12-15T12:18:20.209Z,7.20
2022-12-15T12:19:20.199Z,7.02
2022-12-15T12:20:20.112Z,6.87
2022-12-15T12:21:20.050Z,6.64
2022-12-15T12:22:20.009Z,6.51
2022-12-15T12:23:19.969Z,6.45
2022-12-15T12:24:20.100Z,6.28
2022-12-15T12:25:20.896Z,6.08
2022-12-15T12:26:19.794Z,6.05
2022-12-15T12:27:19.741Z,5.91
2022-12-15T12:28:19.687Z,5.72
2022-12-15T12:29:19.733Z,5.69
2022-12-15T12:30:19.602Z,5.65
2022-12-15T12:31:19.527Z,5.57
2022-12-15T12:32:19.501Z,5.48
2022-12-15T12:33:19.413Z,5.46
2022-12-15T12:34:19.370Z,5.43
2022-12-15T12:36:19.287Z,5.44
2022-12-15T12:37:19.205Z,5.36
2022-12-15T12:38:19.233Z,5.32
2022-12-15T12:39:19.109Z,5.18
2022-12-15T12:40:19.045Z,5.21
2022-12-15T12:41:19.081Z,5.21
2022-12-15T12:42:18.934Z,5.07
2022-12-15T12:43:19.034Z,5.10
2022-12-15T12:44:18.823Z,5.07
2022-12-15T12:45:18.769Z,5.02
2022-12-15T12:46:18.710Z,4.97
2022-12-15T12:47:18.793Z,5.10
2022-12-15T12:48:18.618Z,5.04
2022-12-15T12:49:22.793Z,5.05
2022-12-15T12:50:18.499Z,5.08
2022-12-15T12:51:18.624Z,5.08
2022-12-15T12:52:18.382Z,5.18
2022-12-15T12:53:18.326Z,5.11
2022-12-15T12:54:18.278Z,5.08
2022-12-15T12:55:18.420Z,4.99
2022-12-15T12:56:18.215Z,5.10